createdAt,value
2019-03-17T05:01:01.120Z,990.33
2019-03-17T05:02:00.995Z,990.40
2019-03-17T05:03:53.678Z,990.33
2019-03-17T05:04:53.543Z,990.14
2019-03-17T05:06:52.721Z,990.31
2019-03-17T05:07:46.092Z,990.43
2019-03-17T05:09:38.784Z,990.45
2019-03-17T05:10:38.650Z,990.52
2019-03-17T05:12:31.319Z,990.43
2019-03-17T05:13:31.205Z,990.45
2019-03-17T05:15:23.890Z,990.44
2019-03-17T05:16:23.752Z,990.50
2019-03-17T05:18:16.416Z,990.47
2019-03-17T05:19:16.310Z,990.57
2019-03-17T05:21:08.995Z,990.61
2019-03-17T05:22:08.866Z,990.58
2019-03-17T05:24:01.526Z,990.68
2019-03-17T05:25:01.422Z,990.60
2019-03-17T05:26:54.101Z,990.63
2019-03-17T05:27:53.967Z,990.69
2019-03-17T05:29:46.637Z,990.56
2019-03-17T05:30:46.523Z,990.58
2019-03-17T05:32:39.196Z,990.70
2019-03-17T05:33:39.070Z,990.83
2019-03-17T05:35:31.737Z,990.65
2019-03-17T05:36:31.622Z,990.74
2019-03-17T05:38:24.301Z,990.65
2019-03-17T05:39:24.191Z,990.64
2019-03-17T05:41:16.838Z,990.64
2019-03-17T05:42:16.724Z,990.68
2019-03-17T05:44:09.458Z,990.60
2019-03-17T05:45:09.284Z,990.55
2019-03-17T05:47:01.932Z,990.56
2019-03-17T05:48:01.824Z,990.47
2019-03-17T05:49:54.505Z,990.53
2019-03-17T05:50:54.376Z,990.56
2019-03-17T05:52:47.042Z,990.51
2019-03-17T05:53:46.934Z,990.48
2019-03-17T05:55:39.624Z,990.49
2019-03-17T05:56:39.488Z,990.54
2019-03-17T05:58:32.145Z,990.56
2019-03-17T05:59:32.032Z,990.56
2019-03-17T06:01:24.708Z,990.55
2019-03-17T06:02:24.579Z,990.48
2019-03-17T06:04:17.245Z,990.68
2019-03-17T06:05:17.129Z,990.60
2019-03-17T06:07:18.692Z,990.64
2019-03-17T06:08:09.696Z,990.61
2019-03-17T06:10:02.362Z,990.70
2019-03-17T06:11:02.249Z,990.68
2019-03-17T06:12:54.933Z,990.72
2019-03-17T06:13:54.794Z,990.81
2019-03-17T06:15:47.469Z,990.67
2019-03-17T06:16:47.360Z,990.71
2019-03-17T06:18:40.040Z,990.72
2019-03-17T06:19:39.911Z,990.90
2019-03-17T06:21:32.573Z,990.89
2019-03-17T06:22:32.462Z,990.82
2019-03-17T06:24:25.140Z,990.85
2019-03-17T06:25:25.010Z,990.82
2019-03-17T06:27:17.680Z,990.88
2019-03-17T06:28:17.557Z,990.84
2019-03-17T06:30:10.244Z,990.84
2019-03-17T06:31:10.120Z,990.89
2019-03-17T06:33:02.792Z,990.89
2019-03-17T06:34:02.676Z,990.85
2019-03-17T06:35:55.357Z,991.04
2019-03-17T06:36:55.222Z,991.02
2019-03-17T06:38:47.887Z,991.08
2019-03-17T06:39:47.777Z,991.07
2019-03-17T06:41:40.453Z,991.01
2019-03-17T06:42:40.334Z,990.95
2019-03-17T06:44:32.992Z,990.96
2019-03-17T06:45:32.894Z,990.98
2019-03-17T06:47:25.563Z,991.02
2019-03-17T06:48:25.430Z,990.93
2019-03-17T06:50:18.096Z,990.98
2019-03-17T06:51:17.980Z,990.97
2019-03-17T06:53:10.664Z,990.98
2019-03-17T06:54:10.535Z,991.00
2019-03-17T06:56:03.218Z,991.07
2019-03-17T06:57:03.153Z,991.05
2019-03-17T06:58:55.752Z,991.06
2019-03-17T06:59:55.632Z,991.09
2019-03-17T07:01:48.314Z,991.03
2019-03-17T07:02:48.182Z,991.07
2019-03-17T07:04:40.845Z,991.16
2019-03-17T07:05:40.740Z,991.09
2019-03-17T07:07:43.233Z,991.20
2019-03-17T07:08:33.286Z,991.25
2019-03-17T07:10:25.946Z,991.24
2019-03-17T07:11:25.859Z,991.34
2019-03-17T07:13:18.509Z,991.44
2019-03-17T07:14:18.382Z,991.33
2019-03-17T07:16:11.050Z,991.45
2019-03-17T07:17:10.934Z,991.49
2019-03-17T07:19:03.617Z,991.57
2019-03-17T07:20:03.490Z,991.66
2019-03-17T07:21:56.174Z,991.66
2019-03-17T07:22:56.037Z,991.74
2019-03-17T07:24:48.718Z,991.84
2019-03-17T07:25:48.603Z,991.91
2019-03-17T07:27:41.297Z,991.88
2019-03-17T07:28:41.172Z,991.90
2019-03-17T07:30:33.823Z,992.06
2019-03-17T07:31:33.707Z,992.16
2019-03-17T07:33:26.401Z,992.44
2019-03-17T07:34:26.277Z,992.47
2019-03-17T07:36:18.936Z,992.48
2019-03-17T07:37:18.820Z,992.58
2019-03-17T07:39:12.377Z,992.58
2019-03-17T07:40:11.380Z,992.59
2019-03-17T07:42:04.033Z,992.70
2019-03-17T07:43:03.932Z,992.74
2019-03-17T07:44:56.616Z,992.90
2019-03-17T07:45:56.495Z,992.87
2019-03-17T07:47:49.148Z,992.97
2019-03-17T07:48:49.044Z,992.99
2019-03-17T07:50:41.718Z,993.14
2019-03-17T07:51:41.591Z,993.02
2019-03-17T07:53:34.249Z,993.09
2019-03-17T07:54:35.163Z,993.07
2019-03-17T07:56:26.815Z,993.04
2019-03-17T07:57:26.689Z,993.09
2019-03-17T07:59:19.388Z,993.16
2019-03-17T08:00:30.937Z,993.12
2019-03-17T08:02:11.909Z,993.19
2019-03-17T08:03:11.797Z,993.21
2019-03-17T08:05:04.484Z,993.11
2019-03-17T08:06:04.357Z,993.04
2019-03-17T08:08:08.868Z,993.11
2019-03-17T08:08:56.911Z,992.96
2019-03-17T08:10:49.589Z,992.94
2019-03-17T08:11:49.457Z,992.98
2019-03-17T08:13:42.119Z,993.14
2019-03-17T08:14:42.008Z,993.17
2019-03-17T08:16:34.677Z,993.10
2019-03-17T08:17:34.552Z,993.13
2019-03-17T08:19:27.218Z,993.15
2019-03-17T08:20:27.103Z,993.23
2019-03-17T08:22:19.785Z,993.28
2019-03-17T08:23:19.658Z,993.37
2019-03-17T08:25:12.316Z,993.23
2019-03-17T08:26:12.205Z,993.30
2019-03-17T08:28:04.887Z,993.32
2019-03-17T08:29:04.756Z,993.29
2019-03-17T08:30:57.421Z,993.24
2019-03-17T08:31:57.308Z,993.27
2019-03-17T08:33:49.989Z,993.22
2019-03-17T08:34:49.858Z,993.26
2019-03-17T08:36:42.517Z,993.34
2019-03-17T08:37:42.407Z,993.36
2019-03-17T08:39:35.083Z,993.39
2019-03-17T08:40:34.989Z,993.44
2019-03-17T08:42:27.625Z,993.51
2019-03-17T08:43:27.518Z,993.59
2019-03-17T08:45:20.214Z,993.62
2019-03-17T08:46:20.085Z,993.63
2019-03-17T08:48:12.750Z,993.76
2019-03-17T08:49:12.637Z,993.78
2019-03-17T08:51:05.319Z,993.81
2019-03-17T08:52:05.194Z,993.81
2019-03-17T08:53:57.890Z,993.89
2019-03-17T08:54:57.748Z,993.87
2019-03-17T08:56:50.415Z,993.91
2019-03-17T08:57:50.304Z,993.95
2019-03-17T08:59:42.994Z,993.93
2019-03-17T09:00:42.861Z,994.03
2019-03-17T09:02:35.527Z,994.01
2019-03-17T09:03:35.415Z,993.98
2019-03-17T09:05:28.097Z,993.97
2019-03-17T09:06:27.975Z,994.03
2019-03-17T09:08:20.644Z,994.09
2019-03-17T09:09:20.539Z,994.08
2019-03-17T09:11:13.217Z,994.17
2019-03-17T09:12:13.090Z,994.13
2019-03-17T09:14:05.765Z,994.20
2019-03-17T09:15:05.652Z,994.19
2019-03-17T09:16:58.372Z,994.19
2019-03-17T09:17:58.204Z,994.21
2019-03-17T09:19:50.873Z,994.25
2019-03-17T09:20:50.760Z,994.29
2019-03-17T09:22:43.447Z,994.36
2019-03-17T09:23:43.316Z,994.39
2019-03-17T09:25:35.983Z,994.38
2019-03-17T09:26:35.871Z,994.39
2019-03-17T09:28:28.553Z,994.37
2019-03-17T09:29:28.436Z,994.45
2019-03-17T09:31:21.111Z,994.44
2019-03-17T09:32:20.988Z,994.46
2019-03-17T09:34:13.656Z,994.47
2019-03-17T09:35:13.539Z,994.39
2019-03-17T09:37:06.220Z,994.46
2019-03-17T09:38:06.093Z,994.35
2019-03-17T09:39:58.762Z,994.43
2019-03-17T09:40:58.651Z,994.41
2019-03-17T09:42:51.336Z,994.35
2019-03-17T09:43:51.225Z,994.41
2019-03-17T09:45:43.911Z,994.39
2019-03-17T09:46:43.765Z,994.39
2019-03-17T09:48:36.428Z,994.42
2019-03-17T09:49:36.327Z,994.50
2019-03-17T09:51:28.997Z,994.40
2019-03-17T09:52:28.879Z,994.41
2019-03-17T09:54:21.539Z,994.42
2019-03-17T09:55:21.434Z,994.53
2019-03-17T09:57:14.115Z,994.52
2019-03-17T09:58:13.991Z,994.52
2019-03-17T10:00:06.672Z,994.56
2019-03-17T10:01:06.549Z,994.51
2019-03-17T10:02:59.237Z,994.42
2019-03-17T10:03:59.106Z,994.33
2019-03-17T10:05:51.782Z,994.42
2019-03-17T10:06:51.671Z,994.37
2019-03-17T10:08:44.353Z,994.40
2019-03-17T10:09:44.225Z,994.44
2019-03-17T10:11:36.897Z,994.44
2019-03-17T10:12:36.803Z,994.50
2019-03-17T10:14:29.470Z,994.53
2019-03-17T10:15:29.347Z,994.46
2019-03-17T10:17:22.048Z,994.55
2019-03-17T10:18:21.903Z,994.51
2019-03-17T10:20:14.588Z,994.59
2019-03-17T10:21:14.559Z,994.65
2019-03-17T10:23:07.129Z,994.61
2019-03-17T10:24:07.019Z,994.65
2019-03-17T10:25:59.709Z,994.49
2019-03-17T10:26:59.578Z,994.62
2019-03-17T10:28:52.269Z,994.59
2019-03-17T10:29:52.140Z,994.58
2019-03-17T10:31:44.808Z,994.67
2019-03-17T10:32:44.699Z,994.68
2019-03-17T10:34:37.381Z,994.67
2019-03-17T10:35:37.255Z,994.71
2019-03-17T10:37:29.919Z,994.72
2019-03-17T10:38:29.813Z,994.73
2019-03-17T10:40:22.496Z,994.71
2019-03-17T10:41:22.368Z,994.63
2019-03-17T10:43:15.075Z,994.64
2019-03-17T10:44:14.961Z,994.63
2019-03-17T10:46:07.646Z,994.71
2019-03-17T10:47:07.518Z,994.62
2019-03-17T10:49:00.186Z,994.68
2019-03-17T10:50:00.067Z,994.70
2019-03-17T10:51:52.763Z,994.68
2019-03-17T10:52:52.625Z,994.78
2019-03-17T10:54:45.319Z,994.70
2019-03-17T10:55:45.189Z,994.75
2019-03-17T10:57:37.855Z,994.74
2019-03-17T10:58:37.739Z,994.79
2019-03-17T11:00:30.421Z,994.80
2019-03-17T11:01:30.300Z,994.79
2019-03-17T11:03:22.965Z,994.93
2019-03-17T11:04:22.850Z,994.90
2019-03-17T11:06:15.542Z,994.90
2019-03-17T11:07:15.403Z,994.92
2019-03-17T11:09:08.076Z,994.93
2019-03-17T11:10:07.967Z,994.88
2019-03-17T11:12:00.641Z,994.98
2019-03-17T11:13:00.513Z,994.94
2019-03-17T11:14:53.178Z,994.98
2019-03-17T11:15:53.071Z,994.90
2019-03-17T11:17:45.755Z,994.97
2019-03-17T11:18:45.634Z,995.05
2019-03-17T11:20:38.294Z,995.05
2019-03-17T11:21:38.184Z,995.03
2019-03-17T11:23:30.864Z,995.05
2019-03-17T11:24:30.742Z,995.00
2019-03-17T11:26:23.407Z,995.08
2019-03-17T11:27:23.294Z,995.09
2019-03-17T11:29:15.969Z,995.14
2019-03-17T11:30:15.852Z,995.08
2019-03-17T11:32:08.513Z,995.14
2019-03-17T11:33:08.405Z,995.19
2019-03-17T11:35:01.085Z,995.28
2019-03-17T11:36:00.962Z,995.28
2019-03-17T11:37:53.632Z,995.38
2019-03-17T11:38:53.523Z,995.34
2019-03-17T11:40:46.274Z,995.40
2019-03-17T11:41:46.077Z,995.43
2019-03-17T11:43:38.758Z,995.33
2019-03-17T11:44:38.640Z,995.32
2019-03-17T11:46:31.327Z,995.43
2019-03-17T11:47:31.195Z,995.47
2019-03-17T11:49:24.513Z,995.50
2019-03-17T11:50:23.763Z,995.55
2019-03-17T11:52:16.426Z,995.60
2019-03-17T11:53:16.314Z,995.62
2019-03-17T11:55:09.018Z,995.72
2019-03-17T11:56:08.898Z,995.73
2019-03-17T11:58:01.564Z,995.66
2019-03-17T11:59:01.451Z,995.61
2019-03-17T12:00:54.158Z,995.63
2019-03-17T12:01:54.012Z,995.53
2019-03-17T12:03:46.679Z,995.58
2019-03-17T12:04:46.585Z,995.66
2019-03-17T12:06:39.250Z,995.67
2019-03-17T12:07:39.136Z,995.78
2019-03-17T12:09:31.799Z,995.65
2019-03-17T12:10:31.680Z,995.70
2019-03-17T12:12:24.362Z,995.80
2019-03-17T12:13:24.231Z,995.74
2019-03-17T12:15:16.922Z,995.76
2019-03-17T12:16:16.787Z,995.81
2019-03-17T12:18:09.475Z,995.73
2019-03-17T12:19:09.343Z,995.77
2019-03-17T12:21:02.012Z,995.80
2019-03-17T12:22:08.965Z,995.87
2019-03-17T12:23:54.580Z,995.84
2019-03-17T12:24:54.452Z,995.89
2019-03-17T12:26:47.141Z,995.90
2019-03-17T12:27:47.011Z,995.84
2019-03-17T12:29:39.928Z,995.89
2019-03-17T12:30:39.561Z,995.92
2019-03-17T12:32:32.247Z,996.01
2019-03-17T12:33:32.127Z,996.00
2019-03-17T12:35:24.782Z,996.08
2019-03-17T12:36:24.671Z,995.98
2019-03-17T12:38:17.395Z,995.95
2019-03-17T12:39:17.316Z,996.06
2019-03-17T12:41:09.933Z,996.05
2019-03-17T12:42:09.827Z,996.06
2019-03-17T12:44:02.521Z,995.94
2019-03-17T12:45:02.483Z,995.96
2019-03-17T12:46:55.059Z,996.05
2019-03-17T12:47:54.939Z,995.97
2019-03-17T12:49:47.634Z,995.89
2019-03-17T12:50:47.506Z,995.87
2019-03-17T12:52:40.172Z,995.98
2019-03-17T12:53:40.069Z,995.94
2019-03-17T12:55:32.814Z,995.92
2019-03-17T12:56:32.629Z,995.93
2019-03-17T12:58:25.291Z,996.00
2019-03-17T12:59:25.177Z,996.02
2019-03-17T13:01:17.860Z,996.06
2019-03-17T13:02:17.739Z,996.11
2019-03-17T13:04:10.405Z,996.02
2019-03-17T13:05:10.289Z,996.07
2019-03-17T13:07:02.982Z,996.06
2019-03-17T13:08:02.850Z,996.01
2019-03-17T13:09:55.545Z,996.01
2019-03-17T13:10:55.643Z,996.08
2019-03-17T13:12:48.076Z,995.99
2019-03-17T13:13:47.971Z,996.24
2019-03-17T13:15:40.708Z,995.96
2019-03-17T13:16:40.533Z,996.18
2019-03-17T13:18:33.204Z,996.22
2019-03-17T13:19:33.089Z,996.23
2019-03-17T13:21:25.776Z,996.25
2019-03-17T13:22:25.840Z,996.39
2019-03-17T13:24:18.322Z,996.38
2019-03-17T13:25:18.206Z,996.51
2019-03-17T13:27:10.885Z,996.53
2019-03-17T13:28:10.759Z,996.57
2019-03-17T13:30:03.419Z,996.64
2019-03-17T13:31:03.310Z,996.76
2019-03-17T13:32:55.994Z,996.76
2019-03-17T13:33:55.865Z,996.86
2019-03-17T13:35:48.528Z,996.88
2019-03-17T13:36:48.419Z,996.88
2019-03-17T13:38:41.096Z,996.88
2019-03-17T13:39:40.968Z,996.84
2019-03-17T13:41:33.635Z,996.84
2019-03-17T13:42:34.016Z,996.92
2019-03-17T13:44:26.197Z,996.96
2019-03-17T13:45:26.070Z,996.94
2019-03-17T13:47:18.736Z,997.01
2019-03-17T13:48:18.618Z,997.02
2019-03-17T13:50:11.307Z,996.92
2019-03-17T13:51:11.180Z,996.93
2019-03-17T13:53:03.889Z,996.92
2019-03-17T13:54:03.747Z,996.98
2019-03-17T13:55:56.417Z,996.96
2019-03-17T13:56:56.311Z,997.08
2019-03-17T13:58:48.985Z,997.04
2019-03-17T13:59:48.856Z,997.02
2019-03-17T14:01:41.525Z,997.02
2019-03-17T14:02:41.419Z,996.99
2019-03-17T14:04:34.104Z,997.05
2019-03-17T14:05:33.973Z,997.10
2019-03-17T14:07:26.637Z,997.09
2019-03-17T14:08:26.539Z,997.17
2019-03-17T14:10:19.211Z,997.14
2019-03-17T14:11:19.088Z,997.15
2019-03-17T14:13:11.751Z,997.16
2019-03-17T14:14:11.646Z,997.12
2019-03-17T14:16:04.321Z,997.21
2019-03-17T14:17:04.203Z,997.19
2019-03-17T14:18:56.858Z,997.17
2019-03-17T14:19:56.748Z,997.20
2019-03-17T14:21:49.431Z,997.13
2019-03-17T14:22:49.695Z,997.10
2019-03-17T14:24:41.970Z,997.25
2019-03-17T14:25:41.858Z,997.24
2019-03-17T14:27:34.795Z,997.23
2019-03-17T14:28:34.407Z,997.27
2019-03-17T14:30:27.072Z,997.25
2019-03-17T14:31:26.962Z,997.36
2019-03-17T14:33:19.648Z,997.31
2019-03-17T14:34:19.517Z,997.28
2019-03-17T14:36:12.205Z,997.45
2019-03-17T14:37:12.072Z,997.39
2019-03-17T14:39:04.732Z,997.51
2019-03-17T14:40:04.630Z,997.45
2019-03-17T14:41:57.315Z,997.50
2019-03-17T14:42:57.289Z,997.53
2019-03-17T14:44:49.859Z,997.54
2019-03-17T14:45:49.752Z,997.63
2019-03-17T14:47:42.420Z,997.54
2019-03-17T14:48:42.296Z,997.49
2019-03-17T14:50:34.960Z,997.53
2019-03-17T14:51:34.846Z,997.53
2019-03-17T14:53:27.527Z,997.59
2019-03-17T14:54:27.405Z,997.53
2019-03-17T14:56:20.068Z,997.54
2019-03-17T14:57:19.958Z,997.50
2019-03-17T14:59:12.731Z,997.53
2019-03-17T15:00:12.513Z,997.54
2019-03-17T15:02:05.175Z,997.56
2019-03-17T15:03:05.066Z,997.50
2019-03-17T15:04:57.749Z,997.64
2019-03-17T15:05:57.621Z,997.60
2019-03-17T15:07:50.349Z,997.56
2019-03-17T15:08:50.178Z,997.62
2019-03-17T15:10:42.844Z,997.73
2019-03-17T15:11:42.736Z,997.80
2019-03-17T15:13:35.418Z,997.79
2019-03-17T15:14:35.290Z,997.79
2019-03-17T15:16:27.963Z,997.78
2019-03-17T15:17:27.846Z,997.89
2019-03-17T15:19:20.527Z,997.87
2019-03-17T15:20:20.407Z,997.84
2019-03-17T15:22:13.063Z,997.86
2019-03-17T15:23:12.962Z,997.88
2019-03-17T15:25:05.639Z,997.96
2019-03-17T15:26:05.521Z,997.89
2019-03-17T15:27:58.178Z,997.91
2019-03-17T15:28:58.069Z,997.96
2019-03-17T15:31:05.592Z,998.08
2019-03-17T15:31:50.630Z,997.99
2019-03-17T15:33:43.283Z,997.92
2019-03-17T15:34:43.177Z,997.98
2019-03-17T15:36:35.852Z,997.97
2019-03-17T15:37:35.724Z,997.99
2019-03-17T15:39:28.386Z,997.99
2019-03-17T15:40:28.285Z,998.02
2019-03-17T15:42:20.957Z,998.05
2019-03-17T15:43:20.833Z,998.10
2019-03-17T15:45:13.524Z,998.15
2019-03-17T15:46:13.389Z,998.15
2019-03-17T15:48:06.071Z,998.18
2019-03-17T15:49:05.945Z,998.14
2019-03-17T15:50:58.605Z,998.19
2019-03-17T15:51:58.503Z,998.13
2019-03-17T15:53:51.173Z,998.18
2019-03-17T15:54:51.049Z,998.20
2019-03-17T15:56:43.742Z,998.40
2019-03-17T15:57:43.622Z,998.42
2019-03-17T15:59:36.277Z,998.41
2019-03-17T16:00:36.160Z,998.43
2019-03-17T16:02:28.847Z,998.37
2019-03-17T16:03:28.711Z,998.39
2019-03-17T16:05:21.382Z,998.48
2019-03-17T16:06:21.261Z,998.50
2019-03-17T16:08:13.942Z,998.52
2019-03-17T16:09:13.819Z,998.50
2019-03-17T16:11:06.483Z,998.53
2019-03-17T16:12:06.365Z,998.51
2019-03-17T16:13:59.043Z,998.51
2019-03-17T16:14:58.921Z,998.52
2019-03-17T16:16:51.576Z,998.53
2019-03-17T16:17:51.468Z,998.59
2019-03-17T16:19:44.144Z,998.52
2019-03-17T16:20:44.020Z,998.55
2019-03-17T16:22:36.682Z,998.60
2019-03-17T16:23:36.568Z,998.56
2019-03-17T16:25:29.247Z,998.56
2019-03-17T16:26:29.124Z,998.58
2019-03-17T16:28:21.785Z,998.65
2019-03-17T16:29:21.672Z,998.59
2019-03-17T16:31:14.349Z,998.60
2019-03-17T16:32:14.226Z,998.62
2019-03-17T16:34:06.990Z,998.63
2019-03-17T16:35:06.854Z,998.68
2019-03-17T16:36:59.515Z,998.69
2019-03-17T16:37:59.404Z,998.68
2019-03-17T16:39:52.084Z,998.73
2019-03-17T16:40:51.950Z,998.75
2019-03-17T16:42:44.635Z,998.80
2019-03-17T16:43:44.502Z,998.78
2019-03-17T16:45:37.182Z,998.78
2019-03-17T16:46:37.050Z,998.79
2019-03-17T16:48:29.723Z,998.84
2019-03-17T16:49:29.610Z,998.86
2019-03-17T16:51:22.286Z,998.84
2019-03-17T16:52:22.179Z,998.94
2019-03-17T16:54:14.817Z,998.92
2019-03-17T16:55:14.766Z,998.94
2019-03-17T16:57:07.383Z,998.99
2019-03-17T16:58:07.257Z,998.98
2019-03-17T16:59:59.914Z,999.05
2019-03-17T17:01:00.007Z,999.00
2019-03-17T17:02:52.487Z,999.06
2019-03-17T17:03:52.349Z,999.08
2019-03-17T17:05:45.009Z,999.14
2019-03-17T17:06:44.900Z,999.10
2019-03-17T17:08:37.571Z,999.16
2019-03-17T17:09:37.444Z,999.14
2019-03-17T17:11:30.156Z,999.11
2019-03-17T17:12:29.994Z,999.21
2019-03-17T17:14:22.667Z,999.16
2019-03-17T17:15:22.551Z,999.23
2019-03-17T17:17:15.234Z,999.23
2019-03-17T17:18:15.105Z,999.24
2019-03-17T17:20:07.767Z,999.18
2019-03-17T17:21:07.654Z,999.19
2019-03-17T17:23:00.334Z,999.25
2019-03-17T17:24:00.204Z,999.29
2019-03-17T17:25:53.011Z,999.30
2019-03-17T17:26:52.897Z,999.35
2019-03-17T17:28:45.577Z,999.31
2019-03-17T17:29:45.442Z,999.31
2019-03-17T17:31:38.100Z,999.36
2019-03-17T17:32:37.994Z,999.40
2019-03-17T17:34:30.666Z,999.45
2019-03-17T17:35:30.540Z,999.39
2019-03-17T17:37:23.216Z,999.42
2019-03-17T17:38:23.092Z,999.38
2019-03-17T17:40:15.744Z,999.40
2019-03-17T17:41:15.631Z,999.41
2019-03-17T17:43:08.307Z,999.42
2019-03-17T17:44:08.179Z,999.42
2019-03-17T17:46:00.838Z,999.47
2019-03-17T17:47:00.722Z,999.51
2019-03-17T17:48:53.403Z,999.55
2019-03-17T17:49:53.279Z,999.54
2019-03-17T17:51:45.970Z,999.63
2019-03-17T17:52:45.831Z,999.61
2019-03-17T17:54:38.508Z,999.72
2019-03-17T17:55:38.383Z,999.73
2019-03-17T17:57:31.038Z,999.76
2019-03-17T17:58:30.923Z,999.86
2019-03-17T18:00:23.599Z,999.84
2019-03-17T18:01:23.476Z,999.83
2019-03-17T18:03:16.129Z,999.89
2019-03-17T18:04:16.184Z,999.90
2019-03-17T18:06:08.700Z,999.95
2019-03-17T18:07:08.570Z,999.94
2019-03-17T18:09:01.219Z,999.92
2019-03-17T18:10:01.109Z,999.92
2019-03-17T18:11:53.789Z,999.95
2019-03-17T18:12:53.658Z,1000.06
2019-03-17T18:14:46.315Z,1000.10
2019-03-17T18:15:46.197Z,1000.14
2019-03-17T18:17:38.877Z,1000.14
2019-03-17T18:18:38.748Z,1000.16
2019-03-17T18:20:31.407Z,1000.08
2019-03-17T18:21:31.296Z,1000.09
2019-03-17T18:23:23.972Z,1000.12
2019-03-17T18:24:23.839Z,1000.11
2019-03-17T18:26:16.525Z,1000.17
2019-03-17T18:27:18.200Z,1000.14
2019-03-17T18:29:09.040Z,1000.16
2019-03-17T18:30:08.929Z,1000.17
2019-03-17T18:32:01.598Z,1000.14
2019-03-17T18:33:01.472Z,1000.21
2019-03-17T18:34:54.213Z,1000.21
2019-03-17T18:35:54.015Z,1000.24
2019-03-17T18:37:46.718Z,1000.20
2019-03-17T18:38:46.570Z,1000.25
2019-03-17T18:40:39.220Z,1000.36
2019-03-17T18:41:39.118Z,1000.39
2019-03-17T18:43:31.782Z,1000.41
2019-03-17T18:44:31.655Z,1000.49
2019-03-17T18:46:24.315Z,1000.53
2019-03-17T18:47:24.224Z,1000.46
2019-03-17T18:49:16.873Z,1000.51
2019-03-17T18:50:20.677Z,1000.51
2019-03-17T18:52:09.420Z,1000.55
2019-03-17T18:53:09.292Z,1000.55
2019-03-17T18:55:02.008Z,1000.59
2019-03-17T18:56:01.841Z,1000.63
2019-03-17T18:57:54.504Z,1000.73
2019-03-17T18:58:54.381Z,1000.66
2019-03-17T19:00:47.060Z,1000.67
2019-03-17T19:01:46.925Z,1000.69
2019-03-17T19:03:39.585Z,1000.69
2019-03-17T19:04:39.495Z,1000.66
2019-03-17T19:06:32.211Z,1000.67
2019-03-17T19:07:32.091Z,1000.75
2019-03-17T19:09:24.759Z,1000.69
2019-03-17T19:10:24.622Z,1000.74
2019-03-17T19:12:17.282Z,1000.75
2019-03-17T19:13:17.166Z,1000.74
2019-03-17T19:15:09.842Z,1000.82
2019-03-17T19:16:09.707Z,1000.81
2019-03-17T19:18:02.378Z,1000.90
2019-03-17T19:19:02.261Z,1000.89
2019-03-17T19:20:54.935Z,1000.94
2019-03-17T19:21:54.811Z,1000.97
2019-03-17T19:23:47.465Z,1001.02
2019-03-17T19:24:47.354Z,1001.01
2019-03-17T19:26:40.101Z,1000.99
2019-03-17T19:27:39.897Z,1001.02
2019-03-17T19:29:32.558Z,1001.01
2019-03-17T19:30:32.449Z,1000.98
2019-03-17T19:32:25.244Z,1001.02
2019-03-17T19:33:24.990Z,1001.05
2019-03-17T19:35:17.648Z,1001.08
2019-03-17T19:36:17.539Z,1001.08
2019-03-17T19:38:10.231Z,1001.12
2019-03-17T19:39:10.115Z,1001.14
2019-03-17T19:41:02.775Z,1001.14
2019-03-17T19:42:02.654Z,1001.14
2019-03-17T19:43:55.326Z,1001.15
2019-03-17T19:44:55.198Z,1001.11
2019-03-17T19:46:47.854Z,1001.19
2019-03-17T19:47:47.744Z,1001.18
2019-03-17T19:49:40.410Z,1001.24
2019-03-17T19:50:40.295Z,1001.23
2019-03-17T19:52:32.940Z,1001.36
2019-03-17T19:53:32.826Z,1001.37
2019-03-17T19:55:25.514Z,1001.37
2019-03-17T19:56:25.370Z,1001.34
2019-03-17T19:58:18.053Z,1001.32
2019-03-17T19:59:17.921Z,1001.37
2019-03-17T20:01:10.576Z,1001.39
2019-03-17T20:02:10.463Z,1001.38
2019-03-17T20:04:03.138Z,1001.43
2019-03-17T20:05:03.006Z,1001.47
2019-03-17T20:06:55.660Z,1001.42
2019-03-17T20:07:55.547Z,1001.40
2019-03-17T20:09:48.233Z,1001.46
2019-03-17T20:10:48.198Z,1001.51
2019-03-17T20:12:40.774Z,1001.50
2019-03-17T20:13:40.654Z,1001.48
2019-03-17T20:15:33.331Z,1001.52
2019-03-17T20:16:33.206Z,1001.55
2019-03-17T20:18:25.855Z,1001.54
2019-03-17T20:19:25.739Z,1001.57
2019-03-17T20:21:18.422Z,1001.54
2019-03-17T20:22:18.288Z,1001.53
2019-03-17T20:24:10.949Z,1001.58
2019-03-17T20:25:10.841Z,1001.58
2019-03-17T20:27:03.510Z,1001.63
2019-03-17T20:28:03.381Z,1001.63
2019-03-17T20:29:56.045Z,1001.65
2019-03-17T20:30:55.932Z,1001.74
2019-03-17T20:32:48.606Z,1001.70
2019-03-17T20:33:48.472Z,1001.81
2019-03-17T20:35:41.132Z,1001.70
2019-03-17T20:36:41.019Z,1001.74
2019-03-17T20:38:33.700Z,1001.71
2019-03-17T20:39:33.568Z,1001.73
2019-03-17T20:41:26.413Z,1001.80
2019-03-17T20:42:26.151Z,1001.90
2019-03-17T20:44:18.773Z,1001.99
2019-03-17T20:45:20.326Z,1001.98
2019-03-17T20:47:11.331Z,1002.04
2019-03-17T20:48:11.265Z,1002.05
2019-03-17T20:50:03.862Z,1002.08
2019-03-17T20:51:03.745Z,1002.09
2019-03-17T20:52:56.429Z,1002.09
2019-03-17T20:53:56.291Z,1002.16
2019-03-17T20:55:48.948Z,1002.13
2019-03-17T20:56:48.836Z,1002.14
2019-03-17T20:58:41.527Z,1002.21
2019-03-17T20:59:41.387Z,1002.21
2019-03-17T21:01:34.071Z,1002.25
2019-03-17T21:02:33.934Z,1002.30
2019-03-17T21:04:26.610Z,1002.29
2019-03-17T21:05:26.480Z,1002.35
2019-03-17T21:07:19.141Z,1002.30
2019-03-17T21:08:19.030Z,1002.27
2019-03-17T21:10:11.705Z,1002.35
2019-03-17T21:11:11.576Z,1002.37
2019-03-17T21:13:04.232Z,1002.42
2019-03-17T21:14:04.135Z,1002.48
2019-03-17T21:15:56.794Z,1002.48
2019-03-17T21:16:56.658Z,1002.50
2019-03-17T21:18:49.318Z,1002.53
2019-03-17T21:19:49.237Z,1002.53
2019-03-17T21:21:41.891Z,1002.56
2019-03-17T21:22:41.761Z,1002.59
2019-03-17T21:24:34.412Z,1002.65
2019-03-17T21:25:34.301Z,1002.65
2019-03-17T21:27:26.972Z,1002.52
2019-03-17T21:28:27.798Z,1002.55
2019-03-17T21:30:19.510Z,1002.54
2019-03-17T21:31:19.387Z,1002.55
2019-03-17T21:33:12.119Z,1002.61
2019-03-17T21:34:11.936Z,1002.64
2019-03-17T21:36:04.589Z,1002.63
2019-03-17T21:37:04.482Z,1002.66
2019-03-17T21:38:57.155Z,1002.70
2019-03-17T21:39:57.028Z,1002.69
2019-03-17T21:41:49.704Z,1002.66
2019-03-17T21:42:49.571Z,1002.67
2019-03-17T21:44:42.224Z,1002.64
2019-03-17T21:45:42.114Z,1002.65
2019-03-17T21:47:34.787Z,1002.66
2019-03-17T21:48:34.754Z,1002.67
2019-03-17T21:50:27.321Z,1002.66
2019-03-17T21:51:27.207Z,1002.68
2019-03-17T21:53:19.875Z,1002.76
2019-03-17T21:54:19.750Z,1002.77
2019-03-17T21:56:12.419Z,1002.80
2019-03-17T21:57:12.307Z,1002.76
2019-03-17T21:59:05.141Z,1002.80
2019-03-17T22:00:04.862Z,1002.83
2019-03-17T22:01:57.538Z,1003.01
2019-03-17T22:02:57.401Z,1002.99
2019-03-17T22:04:50.061Z,1003.02
2019-03-17T22:05:49.950Z,1003.11
2019-03-17T22:07:49.271Z,1003.13
2019-03-17T22:08:42.509Z,1003.19
2019-03-17T22:10:35.150Z,1003.04
2019-03-17T22:11:35.054Z,1003.00
2019-03-17T22:13:27.706Z,1002.95
2019-03-17T22:14:27.579Z,1003.05
2019-03-17T22:16:20.238Z,1002.96
2019-03-17T22:17:20.140Z,1002.94
2019-03-17T22:19:12.803Z,1002.98
2019-03-17T22:20:12.678Z,1003.01
2019-03-17T22:22:05.360Z,1003.01
2019-03-17T22:23:05.219Z,1002.99
2019-03-17T22:24:57.901Z,1002.97
2019-03-17T22:25:57.776Z,1002.97
2019-03-17T22:27:50.468Z,1002.93
2019-03-17T22:28:50.330Z,1003.04
2019-03-17T22:30:43.005Z,1003.09
2019-03-17T22:31:43.022Z,1003.06
2019-03-17T22:33:35.593Z,1003.00
2019-03-17T22:34:35.455Z,1003.08
2019-03-17T22:36:28.158Z,1003.08
2019-03-17T22:37:28.000Z,1003.20
2019-03-17T22:39:20.805Z,1003.15
2019-03-17T22:40:20.621Z,1003.21
2019-03-17T22:42:13.297Z,1003.11
2019-03-17T22:43:13.214Z,1003.19
2019-03-17T22:45:05.903Z,1003.22
2019-03-17T22:46:05.744Z,1003.11
2019-03-17T22:47:58.450Z,1003.20